<?xml version="1.0" encoding="UTF-8" standalone="no" ?>
<gpx xmlns="http://www.topografix.com/GPX/1/1" xmlns:xsi="http://www.w3.org/2001/XMLSchema-instance" xsi:schemaLocation="http://www.topografix.com/GPX/1/1 http://www.topografix.com/GPX/1/1/gpx.xsd" version="1.1" creator="VisuGPX - https://www.visugpx.com">
  <metadata>
    <name>en pareds</name>
  </metadata>
  <trk>
    <name><![CDATA[1 Sentier Boistissandeau PC]]></name>
    <extensions>
      <line xmlns="http://www.topografix.com/GPX/gpx_style/0/2">
        <width>4</width>
      </line>
    </extensions>
    <trkseg>
      <trkpt lat="46.82447" lon="-0.98523">
        <ele>114</ele>
        <time>2022-12-15T20:10:50.000Z</time>
      </trkpt>
      <trkpt lat="46.82458" lon="-0.98524">
        <ele>115</ele>
        <time>2022-12-15T20:10:59.000Z</time>
      </trkpt>
      <trkpt lat="46.82473" lon="-0.98498">
        <ele>115</ele>
        <time>2022-12-15T20:11:17.000Z</time>
      </trkpt>
      <trkpt lat="46.82482" lon="-0.98476">
        <ele>115</ele>
        <time>2022-12-15T20:11:31.000Z</time>
      </trkpt>
      <trkpt lat="46.82486" lon="-0.98452">
        <ele>114</ele>
        <time>2022-12-15T20:11:45.000Z</time>
      </trkpt>
      <trkpt lat="46.82561" lon="-0.98471">
        <ele>116</ele>
        <time>2022-12-15T20:12:46.000Z</time>
      </trkpt>
      <trkpt lat="46.82564" lon="-0.98483">
        <ele>116</ele>
        <time>2022-12-15T20:12:53.000Z</time>
      </trkpt>
      <trkpt lat="46.8258" lon="-0.98564">
        <ele>118</ele>
        <time>2022-12-15T20:13:39.000Z</time>
      </trkpt>
      <trkpt lat="46.82592" lon="-0.98641">
        <ele>119</ele>
        <time>2022-12-15T20:14:22.000Z</time>
      </trkpt>
      <trkpt lat="46.82609" lon="-0.98753">
        <ele>118</ele>
        <time>2022-12-15T20:15:25.000Z</time>
      </trkpt>
      <trkpt lat="46.82606" lon="-0.98769">
        <ele>118</ele>
        <time>2022-12-15T20:15:34.000Z</time>
      </trkpt>
      <trkpt lat="46.82607" lon="-0.9877">
        <ele>118</ele>
        <time>2022-12-15T20:15:35.000Z</time>
      </trkpt>
      <trkpt lat="46.82637" lon="-0.98839">
        <ele>115</ele>
        <time>2022-12-15T20:16:20.000Z</time>
      </trkpt>
      <trkpt lat="46.82637" lon="-0.98838">
        <ele>115</ele>
        <time>2022-12-15T20:16:21.000Z</time>
      </trkpt>
      <trkpt lat="46.82684" lon="-0.98787">
        <ele>117</ele>
        <time>2022-12-15T20:17:08.000Z</time>
      </trkpt>
      <trkpt lat="46.82704" lon="-0.98762">
        <ele>118</ele>
        <time>2022-12-15T20:17:29.000Z</time>
      </trkpt>
      <trkpt lat="46.82739" lon="-0.98718">
        <ele>118</ele>
        <time>2022-12-15T20:18:06.000Z</time>
      </trkpt>
      <trkpt lat="46.82764" lon="-0.98696">
        <ele>119</ele>
        <time>2022-12-15T20:18:29.000Z</time>
      </trkpt>
      <trkpt lat="46.82768" lon="-0.98689">
        <ele>119</ele>
        <time>2022-12-15T20:18:34.000Z</time>
      </trkpt>
      <trkpt lat="46.82786" lon="-0.98657">
        <ele>119</ele>
        <time>2022-12-15T20:18:57.000Z</time>
      </trkpt>
      <trkpt lat="46.82824" lon="-0.98597">
        <ele>118</ele>
        <time>2022-12-15T20:19:41.000Z</time>
      </trkpt>
      <trkpt lat="46.82829" lon="-0.98586">
        <ele>118</ele>
        <time>2022-12-15T20:19:49.000Z</time>
      </trkpt>
      <trkpt lat="46.82844" lon="-0.98558">
        <ele>118</ele>
        <time>2022-12-15T20:20:08.000Z</time>
      </trkpt>
      <trkpt lat="46.82848" lon="-0.98541">
        <ele>117</ele>
        <time>2022-12-15T20:20:18.000Z</time>
      </trkpt>
      <trkpt lat="46.82856" lon="-0.98535">
        <ele>117</ele>
        <time>2022-12-15T20:20:25.000Z</time>
      </trkpt>
      <trkpt lat="46.82879" lon="-0.98498">
        <ele>116</ele>
        <time>2022-12-15T20:20:53.000Z</time>
      </trkpt>
      <trkpt lat="46.8289" lon="-0.9847">
        <ele>115</ele>
        <time>2022-12-15T20:21:10.000Z</time>
      </trkpt>
      <trkpt lat="46.82889" lon="-0.98469">
        <ele>115</ele>
        <time>2022-12-15T20:21:11.000Z</time>
      </trkpt>
      <trkpt lat="46.82802" lon="-0.98433">
        <ele>118</ele>
        <time>2022-12-15T20:22:24.000Z</time>
      </trkpt>
      <trkpt lat="46.82799" lon="-0.98431">
        <ele>118</ele>
        <time>2022-12-15T20:22:26.000Z</time>
      </trkpt>
      <trkpt lat="46.82856" lon="-0.9832">
        <ele>118</ele>
        <time>2022-12-15T20:23:42.000Z</time>
      </trkpt>
      <trkpt lat="46.83025" lon="-0.98052">
        <ele>119</ele>
        <time>2022-12-15T20:27:02.000Z</time>
      </trkpt>
      <trkpt lat="46.83036" lon="-0.98025">
        <ele>118</ele>
        <time>2022-12-15T20:27:19.000Z</time>
      </trkpt>
      <trkpt lat="46.83039" lon="-0.98025">
        <ele>118</ele>
        <time>2022-12-15T20:27:22.000Z</time>
      </trkpt>
      <trkpt lat="46.83138" lon="-0.98027">
        <ele>112</ele>
        <time>2022-12-15T20:28:41.000Z</time>
      </trkpt>
      <trkpt lat="46.83174" lon="-0.98012">
        <ele>108</ele>
        <time>2022-12-15T20:29:11.000Z</time>
      </trkpt>
      <trkpt lat="46.83186" lon="-0.97999">
        <ele>106</ele>
        <time>2022-12-15T20:29:23.000Z</time>
      </trkpt>
      <trkpt lat="46.83213" lon="-0.97951">
        <ele>103</ele>
        <time>2022-12-15T20:29:57.000Z</time>
      </trkpt>
      <trkpt lat="46.83228" lon="-0.97853">
        <ele>102</ele>
        <time>2022-12-15T20:30:52.000Z</time>
      </trkpt>
      <trkpt lat="46.83229" lon="-0.97851">
        <ele>102</ele>
        <time>2022-12-15T20:30:53.000Z</time>
      </trkpt>
      <trkpt lat="46.83349" lon="-0.9779">
        <ele>99</ele>
        <time>2022-12-15T20:32:35.000Z</time>
      </trkpt>
      <trkpt lat="46.83442" lon="-0.97688">
        <ele>99</ele>
        <time>2022-12-15T20:34:08.000Z</time>
      </trkpt>
      <trkpt lat="46.83489" lon="-0.97576">
        <ele>100</ele>
        <time>2022-12-15T20:35:20.000Z</time>
      </trkpt>
      <trkpt lat="46.83528" lon="-0.97484">
        <ele>99</ele>
        <time>2022-12-15T20:36:19.000Z</time>
      </trkpt>
      <trkpt lat="46.8358" lon="-0.97413">
        <ele>98</ele>
        <time>2022-12-15T20:37:16.000Z</time>
      </trkpt>
      <trkpt lat="46.83615" lon="-0.9736">
        <ele>99</ele>
        <time>2022-12-15T20:37:57.000Z</time>
      </trkpt>
      <trkpt lat="46.83675" lon="-0.97321">
        <ele>98</ele>
        <time>2022-12-15T20:38:49.000Z</time>
      </trkpt>
      <trkpt lat="46.83753" lon="-0.97321">
        <ele>98</ele>
        <time>2022-12-15T20:39:52.000Z</time>
      </trkpt>
      <trkpt lat="46.83752" lon="-0.97323">
        <ele>98</ele>
        <time>2022-12-15T20:39:53.000Z</time>
      </trkpt>
      <trkpt lat="46.8374" lon="-0.97378">
        <ele>97</ele>
        <time>2022-12-15T20:40:25.000Z</time>
      </trkpt>
      <trkpt lat="46.83732" lon="-0.97402">
        <ele>98</ele>
        <time>2022-12-15T20:40:39.000Z</time>
      </trkpt>
      <trkpt lat="46.83731" lon="-0.97418">
        <ele>98</ele>
        <time>2022-12-15T20:40:48.000Z</time>
      </trkpt>
      <trkpt lat="46.83726" lon="-0.97465">
        <ele>98</ele>
        <time>2022-12-15T20:41:14.000Z</time>
      </trkpt>
      <trkpt lat="46.83722" lon="-0.97543">
        <ele>100</ele>
        <time>2022-12-15T20:41:57.000Z</time>
      </trkpt>
      <trkpt lat="46.83736" lon="-0.97629">
        <ele>102</ele>
        <time>2022-12-15T20:42:45.000Z</time>
      </trkpt>
      <trkpt lat="46.83784" lon="-0.97785">
        <ele>108</ele>
        <time>2022-12-15T20:44:19.000Z</time>
      </trkpt>
      <trkpt lat="46.83785" lon="-0.97785">
        <ele>108</ele>
        <time>2022-12-15T20:44:20.000Z</time>
      </trkpt>
      <trkpt lat="46.83754" lon="-0.97816">
        <ele>109</ele>
        <time>2022-12-15T20:44:50.000Z</time>
      </trkpt>
      <trkpt lat="46.83716" lon="-0.97866">
        <ele>109</ele>
        <time>2022-12-15T20:45:31.000Z</time>
      </trkpt>
      <trkpt lat="46.83676" lon="-0.97931">
        <ele>110</ele>
        <time>2022-12-15T20:46:19.000Z</time>
      </trkpt>
      <trkpt lat="46.8364" lon="-0.9802">
        <ele>111</ele>
        <time>2022-12-15T20:47:15.000Z</time>
      </trkpt>
      <trkpt lat="46.83582" lon="-0.98077">
        <ele>112</ele>
        <time>2022-12-15T20:48:11.000Z</time>
      </trkpt>
      <trkpt lat="46.83559" lon="-0.98111">
        <ele>111</ele>
        <time>2022-12-15T20:48:37.000Z</time>
      </trkpt>
      <trkpt lat="46.83539" lon="-0.98166">
        <ele>111</ele>
        <time>2022-12-15T20:49:12.000Z</time>
      </trkpt>
      <trkpt lat="46.83509" lon="-0.98229">
        <ele>110</ele>
        <time>2022-12-15T20:49:54.000Z</time>
      </trkpt>
      <trkpt lat="46.83493" lon="-0.98305">
        <ele>110</ele>
        <time>2022-12-15T20:50:37.000Z</time>
      </trkpt>
      <trkpt lat="46.8348" lon="-0.98364">
        <ele>111</ele>
        <time>2022-12-15T20:51:11.000Z</time>
      </trkpt>
      <trkpt lat="46.8343" lon="-0.9856">
        <ele>110</ele>
        <time>2022-12-15T20:53:06.000Z</time>
      </trkpt>
      <trkpt lat="46.83453" lon="-0.98789">
        <ele>111</ele>
        <time>2022-12-15T20:55:13.000Z</time>
      </trkpt>
      <trkpt lat="46.8345" lon="-0.98789">
        <ele>110</ele>
        <time>2022-12-15T20:55:15.000Z</time>
      </trkpt>
      <trkpt lat="46.83453" lon="-0.98789">
        <ele>111</ele>
        <time>2022-12-15T20:55:17.000Z</time>
      </trkpt>
      <trkpt lat="46.83454" lon="-0.98789">
        <ele>114.1</ele>
        <time>2022-12-15T20:55:33.000Z</time>
      </trkpt>
      <trkpt lat="46.83431" lon="-0.98793">
        <ele>113.1</ele>
        <time>2022-12-15T20:55:39.179Z</time>
      </trkpt>
      <trkpt lat="46.8342" lon="-0.98818">
        <ele>112.9</ele>
        <time>2022-12-15T20:55:44.816Z</time>
      </trkpt>
      <trkpt lat="46.83409" lon="-0.98842">
        <ele>112.8</ele>
        <time>2022-12-15T20:55:50.270Z</time>
      </trkpt>
      <trkpt lat="46.83401" lon="-0.98851">
        <ele>112.5</ele>
        <time>2022-12-15T20:55:53.241Z</time>
      </trkpt>
      <trkpt lat="46.83387" lon="-0.98856">
        <ele>111.9</ele>
        <time>2022-12-15T20:55:57.228Z</time>
      </trkpt>
      <trkpt lat="46.83364" lon="-0.98902">
        <ele>111.8</ele>
        <time>2022-12-15T20:56:08.000Z</time>
      </trkpt>
      <trkpt lat="46.83349" lon="-0.98927">
        <ele>111.8</ele>
        <time>2022-12-15T20:56:13.724Z</time>
      </trkpt>
      <trkpt lat="46.83324" lon="-0.98929">
        <ele>110.9</ele>
        <time>2022-12-15T20:56:20.136Z</time>
      </trkpt>
      <trkpt lat="46.83303" lon="-0.98912">
        <ele>109.8</ele>
        <time>2022-12-15T20:56:26.409Z</time>
      </trkpt>
      <trkpt lat="46.8329" lon="-0.98903">
        <ele>109.2</ele>
        <time>2022-12-15T20:56:30.026Z</time>
      </trkpt>
      <trkpt lat="46.83263" lon="-0.98927">
        <ele>108.5</ele>
        <time>2022-12-15T20:56:38.105Z</time>
      </trkpt>
      <trkpt lat="46.83271" lon="-0.98951">
        <ele>109</ele>
        <time>2022-12-15T20:56:42.859Z</time>
      </trkpt>
      <trkpt lat="46.83285" lon="-0.98971">
        <ele>109.8</ele>
        <time>2022-12-15T20:56:47.729Z</time>
      </trkpt>
      <trkpt lat="46.83268" lon="-0.99005">
        <ele>109.1</ele>
        <time>2022-12-15T20:56:55.000Z</time>
      </trkpt>
      <trkpt lat="46.83261" lon="-0.99053">
        <ele>108.6</ele>
        <time>2022-12-15T20:57:14.266Z</time>
      </trkpt>
      <trkpt lat="46.83279" lon="-0.99072">
        <ele>109.4</ele>
        <time>2022-12-15T20:57:26.939Z</time>
      </trkpt>
      <trkpt lat="46.83314" lon="-0.99093">
        <ele>111.4</ele>
        <time>2022-12-15T20:57:49.348Z</time>
      </trkpt>
      <trkpt lat="46.83363" lon="-0.99134">
        <ele>114.5</ele>
        <time>2022-12-15T20:58:22.000Z</time>
      </trkpt>
      <trkpt lat="46.83385" lon="-0.99176">
        <ele>115.8</ele>
        <time>2022-12-15T20:58:24.000Z</time>
      </trkpt>
      <trkpt lat="46.83402" lon="-0.99203">
        <ele>116.2</ele>
        <time>2022-12-15T20:58:52.000Z</time>
      </trkpt>
      <trkpt lat="46.83421" lon="-0.99237">
        <ele>116.3</ele>
        <time>2022-12-15T20:59:23.000Z</time>
      </trkpt>
      <trkpt lat="46.83442" lon="-0.99274">
        <ele>117.3</ele>
        <time>2022-12-15T20:59:54.000Z</time>
      </trkpt>
      <trkpt lat="46.83449" lon="-0.99282">
        <ele>116</ele>
        <time>2022-12-15T21:00:01.000Z</time>
      </trkpt>
      <trkpt lat="46.83445" lon="-0.99292">
        <ele>116</ele>
        <time>2022-12-15T21:00:08.000Z</time>
      </trkpt>
      <trkpt lat="46.83443" lon="-0.99303">
        <ele>116</ele>
        <time>2022-12-15T21:00:14.000Z</time>
      </trkpt>
      <trkpt lat="46.83442" lon="-0.99317">
        <ele>116</ele>
        <time>2022-12-15T21:00:22.000Z</time>
      </trkpt>
      <trkpt lat="46.83434" lon="-0.99359">
        <ele>117</ele>
        <time>2022-12-15T21:00:46.000Z</time>
      </trkpt>
      <trkpt lat="46.83412" lon="-0.99406">
        <ele>118</ele>
        <time>2022-12-15T21:01:17.000Z</time>
      </trkpt>
      <trkpt lat="46.83406" lon="-0.99415">
        <ele>118</ele>
        <time>2022-12-15T21:01:24.000Z</time>
      </trkpt>
      <trkpt lat="46.83404" lon="-0.99417">
        <ele>118</ele>
        <time>2022-12-15T21:01:26.000Z</time>
      </trkpt>
      <trkpt lat="46.83406" lon="-0.99415">
        <ele>118</ele>
        <time>2022-12-15T21:01:28.000Z</time>
      </trkpt>
      <trkpt lat="46.83377" lon="-0.99387">
        <ele>117</ele>
        <time>2022-12-15T21:01:55.000Z</time>
      </trkpt>
      <trkpt lat="46.83317" lon="-0.99345">
        <ele>113</ele>
        <time>2022-12-15T21:02:49.000Z</time>
      </trkpt>
      <trkpt lat="46.83304" lon="-0.9934">
        <ele>112</ele>
        <time>2022-12-15T21:02:59.000Z</time>
      </trkpt>
      <trkpt lat="46.83286" lon="-0.99343">
        <ele>112</ele>
        <time>2022-12-15T21:03:14.000Z</time>
      </trkpt>
      <trkpt lat="46.83282" lon="-0.99347">
        <ele>112</ele>
        <time>2022-12-15T21:03:18.000Z</time>
      </trkpt>
      <trkpt lat="46.83204" lon="-0.99432">
        <ele>118</ele>
        <time>2022-12-15T21:04:36.000Z</time>
      </trkpt>
      <trkpt lat="46.83204" lon="-0.99432">
        <ele>118</ele>
        <time>2022-12-15T21:04:36.000Z</time>
      </trkpt>
      <trkpt lat="46.83203" lon="-0.99421">
        <ele>117</ele>
        <time>2022-12-15T21:04:42.000Z</time>
      </trkpt>
      <trkpt lat="46.83206" lon="-0.99413">
        <ele>117</ele>
        <time>2022-12-15T21:04:47.000Z</time>
      </trkpt>
      <trkpt lat="46.83208" lon="-0.99401">
        <ele>116</ele>
        <time>2022-12-15T21:04:54.000Z</time>
      </trkpt>
      <trkpt lat="46.83208" lon="-0.9939">
        <ele>115</ele>
        <time>2022-12-15T21:05:00.000Z</time>
      </trkpt>
      <trkpt lat="46.83205" lon="-0.99379">
        <ele>114</ele>
        <time>2022-12-15T21:05:06.000Z</time>
      </trkpt>
      <trkpt lat="46.83199" lon="-0.99372">
        <ele>113</ele>
        <time>2022-12-15T21:05:12.000Z</time>
      </trkpt>
      <trkpt lat="46.83183" lon="-0.99343">
        <ele>110</ele>
        <time>2022-12-15T21:05:33.000Z</time>
      </trkpt>
      <trkpt lat="46.83163" lon="-0.99316">
        <ele>107</ele>
        <time>2022-12-15T21:05:54.000Z</time>
      </trkpt>
      <trkpt lat="46.83154" lon="-0.99305">
        <ele>106</ele>
        <time>2022-12-15T21:06:04.000Z</time>
      </trkpt>
      <trkpt lat="46.83149" lon="-0.99303">
        <ele>106</ele>
        <time>2022-12-15T21:06:08.000Z</time>
      </trkpt>
      <trkpt lat="46.83149" lon="-0.99295">
        <ele>105</ele>
        <time>2022-12-15T21:06:12.000Z</time>
      </trkpt>
      <trkpt lat="46.83146" lon="-0.99283">
        <ele>104</ele>
        <time>2022-12-15T21:06:19.000Z</time>
      </trkpt>
      <trkpt lat="46.83142" lon="-0.99281">
        <ele>104</ele>
        <time>2022-12-15T21:06:23.000Z</time>
      </trkpt>
      <trkpt lat="46.83132" lon="-0.99283">
        <ele>104</ele>
        <time>2022-12-15T21:06:31.000Z</time>
      </trkpt>
      <trkpt lat="46.83125" lon="-0.99281">
        <ele>103</ele>
        <time>2022-12-15T21:06:37.000Z</time>
      </trkpt>
      <trkpt lat="46.83119" lon="-0.99277">
        <ele>103</ele>
        <time>2022-12-15T21:06:42.000Z</time>
      </trkpt>
      <trkpt lat="46.83121" lon="-0.99253">
        <ele>100</ele>
        <time>2022-12-15T21:06:55.000Z</time>
      </trkpt>
      <trkpt lat="46.83118" lon="-0.99239">
        <ele>99</ele>
        <time>2022-12-15T21:07:03.000Z</time>
      </trkpt>
      <trkpt lat="46.83107" lon="-0.99222">
        <ele>98</ele>
        <time>2022-12-15T21:07:16.000Z</time>
      </trkpt>
      <trkpt lat="46.83103" lon="-0.9922">
        <ele>98</ele>
        <time>2022-12-15T21:07:19.000Z</time>
      </trkpt>
      <trkpt lat="46.83068" lon="-0.99198">
        <ele>96</ele>
        <time>2022-12-15T21:07:50.000Z</time>
      </trkpt>
      <trkpt lat="46.83047" lon="-0.99181">
        <ele>96</ele>
        <time>2022-12-15T21:08:09.000Z</time>
      </trkpt>
      <trkpt lat="46.83033" lon="-0.99165">
        <ele>97</ele>
        <time>2022-12-15T21:08:23.000Z</time>
      </trkpt>
      <trkpt lat="46.8302" lon="-0.99151">
        <ele>97</ele>
        <time>2022-12-15T21:08:36.000Z</time>
      </trkpt>
      <trkpt lat="46.83001" lon="-0.99118">
        <ele>99</ele>
        <time>2022-12-15T21:09:00.000Z</time>
      </trkpt>
      <trkpt lat="46.82966" lon="-0.99049">
        <ele>102</ele>
        <time>2022-12-15T21:09:47.000Z</time>
      </trkpt>
      <trkpt lat="46.82927" lon="-0.99097">
        <ele>102</ele>
        <time>2022-12-15T21:10:28.000Z</time>
      </trkpt>
      <trkpt lat="46.8288" lon="-0.99143">
        <ele>98</ele>
        <time>2022-12-15T21:11:13.000Z</time>
      </trkpt>
      <trkpt lat="46.82835" lon="-0.99148">
        <ele>98</ele>
        <time>2022-12-15T21:11:49.000Z</time>
      </trkpt>
      <trkpt lat="46.828" lon="-0.99154">
        <ele>97</ele>
        <time>2022-12-15T21:12:17.000Z</time>
      </trkpt>
      <trkpt lat="46.8276" lon="-0.99182">
        <ele>96</ele>
        <time>2022-12-15T21:12:53.000Z</time>
      </trkpt>
      <trkpt lat="46.82709" lon="-0.99198">
        <ele>96</ele>
        <time>2022-12-15T21:13:35.000Z</time>
      </trkpt>
      <trkpt lat="46.82681" lon="-0.99151">
        <ele>99</ele>
        <time>2022-12-15T21:14:09.000Z</time>
      </trkpt>
      <trkpt lat="46.82658" lon="-0.99094">
        <ele>102</ele>
        <time>2022-12-15T21:14:45.000Z</time>
      </trkpt>
      <trkpt lat="46.8265" lon="-0.99073">
        <ele>103</ele>
        <time>2022-12-15T21:14:58.000Z</time>
      </trkpt>
      <trkpt lat="46.82655" lon="-0.99057">
        <ele>104</ele>
        <time>2022-12-15T21:15:08.000Z</time>
      </trkpt>
      <trkpt lat="46.82641" lon="-0.99056">
        <ele>105</ele>
        <time>2022-12-15T21:15:19.000Z</time>
      </trkpt>
      <trkpt lat="46.82629" lon="-0.99014">
        <ele>108</ele>
        <time>2022-12-15T21:15:44.000Z</time>
      </trkpt>
      <trkpt lat="46.82614" lon="-0.9896">
        <ele>112</ele>
        <time>2022-12-15T21:16:16.000Z</time>
      </trkpt>
      <trkpt lat="46.82594" lon="-0.98897">
        <ele>114</ele>
        <time>2022-12-15T21:16:54.000Z</time>
      </trkpt>
      <trkpt lat="46.82516" lon="-0.98979">
        <ele>113</ele>
        <time>2022-12-15T21:18:11.000Z</time>
      </trkpt>
      <trkpt lat="46.82457" lon="-0.98907">
        <ele>117</ele>
        <time>2022-12-15T21:19:12.000Z</time>
      </trkpt>
      <trkpt lat="46.82461" lon="-0.98893">
        <ele>117</ele>
        <time>2022-12-15T21:19:21.000Z</time>
      </trkpt>
      <trkpt lat="46.82499" lon="-0.98871">
        <ele>117</ele>
        <time>2022-12-15T21:19:53.000Z</time>
      </trkpt>
      <trkpt lat="46.82494" lon="-0.9882">
        <ele>118</ele>
        <time>2022-12-15T21:20:22.000Z</time>
      </trkpt>
      <trkpt lat="46.82495" lon="-0.98796">
        <ele>118</ele>
        <time>2022-12-15T21:20:35.000Z</time>
      </trkpt>
      <trkpt lat="46.82488" lon="-0.98756">
        <ele>118</ele>
        <time>2022-12-15T21:20:57.000Z</time>
      </trkpt>
      <trkpt lat="46.82508" lon="-0.98737">
        <ele>118</ele>
        <time>2022-12-15T21:21:17.000Z</time>
      </trkpt>
      <trkpt lat="46.82501" lon="-0.98683">
        <ele>117</ele>
        <time>2022-12-15T21:21:47.000Z</time>
      </trkpt>
      <trkpt lat="46.8249" lon="-0.98627">
        <ele>117</ele>
        <time>2022-12-15T21:22:19.000Z</time>
      </trkpt>
      <trkpt lat="46.82482" lon="-0.98604">
        <ele>116</ele>
        <time>2022-12-15T21:22:33.000Z</time>
      </trkpt>
      <trkpt lat="46.82473" lon="-0.98568">
        <ele>116</ele>
        <time>2022-12-15T21:22:54.000Z</time>
      </trkpt>
      <trkpt lat="46.82456" lon="-0.98549">
        <ele>115</ele>
        <time>2022-12-15T21:23:11.000Z</time>
      </trkpt>
      <trkpt lat="46.82451" lon="-0.98535">
        <ele>115</ele>
        <time>2022-12-15T21:23:20.000Z</time>
      </trkpt>
    </trkseg>
  </trk>
</gpx>